Hopeman, United Kingdom
Current Conditions -  °F | °C
As of 6:50 AM on Monday 24 Nov 2014 (Local Time) from EGQS Reporting Station
Broken Clouds Broken Clouds  
Wind Chill: 41°   Ceiling: 4800
Heat Index: 46°   Visibility: 6mi
Dew Point: 37°   Wind: 12mph
Humidity: 71%   Direction: 250°WSW
Pressure: 30.06"   Gusts: NA
Location:  57.71°N, 3.43°W
Report Text: EGQS 240650Z 25010KT 9999 FEW032 BKN048 08/03 Q1018 BLU NOSIG
Loading
Personal Weather Stations






























Interactive Weather Map New forecast layout! Learn more

10-Day Weather Forecast

Advertisements
Track Severe Weather on mobile